sensor_id;sensor_type;location;lat;lon;timestamp;P1;durP1;ratioP1;P2;durP2;ratioP2
11665;SDS011;5889;51.350;6.708;2023-02-17T00:01:24;17.63;;;11.87;;
11665;SDS011;5889;51.350;6.708;2023-02-17T00:03:52;18.13;;;11.37;;
11665;SDS011;5889;51.350;6.708;2023-02-17T00:06:21;15.93;;;10.90;;
11665;SDS011;5889;51.350;6.708;2023-02-17T00:08:50;16.53;;;11.60;;
11665;SDS011;5889;51.350;6.708;2023-02-17T00:11:17;17.10;;;10.97;;
11665;SDS011;5889;51.350;6.708;2023-02-17T00:13:44;15.60;;;10.17;;
11665;SDS011;5889;51.350;6.708;2023-02-17T00:16:12;17.03;;;11.83;;
11665;SDS011;5889;51.350;6.708;2023-02-17T00:18:42;14.63;;;10.23;;
11665;SDS011;5889;51.350;6.708;2023-02-17T00:21:09;14.77;;;10.57;;
11665;SDS011;5889;51.350;6.708;2023-02-17T00:23:39;15.80;;;10.70;;
11665;SDS011;5889;51.350;6.708;2023-02-17T00:26:06;18.17;;;10.47;;
11665;SDS011;5889;51.350;6.708;2023-02-17T00:28:33;14.57;;;10.00;;
11665;SDS011;5889;51.350;6.708;2023-02-17T00:31:04;16.93;;;10.20;;
11665;SDS011;5889;51.350;6.708;2023-02-17T00:33:32;14.43;;;9.90;;
11665;SDS011;5889;51.350;6.708;2023-02-17T00:36:01;14.63;;;9.80;;
11665;SDS011;5889;51.350;6.708;2023-02-17T00:38:28;14.87;;;10.20;;
11665;SDS011;5889;51.350;6.708;2023-02-17T00:40:56;15.27;;;10.37;;
11665;SDS011;5889;51.350;6.708;2023-02-17T00:43:23;16.30;;;9.87;;
11665;SDS011;5889;51.350;6.708;2023-02-17T00:45:50;14.50;;;9.80;;
11665;SDS011;5889;51.350;6.708;2023-02-17T00:48:16;17.93;;;10.30;;
11665;SDS011;5889;51.350;6.708;2023-02-17T00:50:43;15.00;;;10.00;;
11665;SDS011;5889;51.350;6.708;2023-02-17T00:53:10;18.93;;;10.70;;
11665;SDS011;5889;51.350;6.708;2023-02-17T00:55:37;18.53;;;9.83;;
11665;SDS011;5889;51.350;6.708;2023-02-17T00:58:05;15.93;;;10.70;;
11665;SDS011;5889;51.350;6.708;2023-02-17T01:00:32;16.13;;;10.17;;
11665;SDS011;5889;51.350;6.708;2023-02-17T01:02:59;13.97;;;10.07;;
11665;SDS011;5889;51.350;6.708;2023-02-17T01:05:26;15.13;;;10.20;;
11665;SDS011;5889;51.350;6.708;2023-02-17T01:07:53;16.10;;;10.87;;
11665;SDS011;5889;51.350;6.708;2023-02-17T01:10:20;15.13;;;10.83;;
11665;SDS011;5889;51.350;6.708;2023-02-17T01:12:47;15.20;;;10.63;;
11665;SDS011;5889;51.350;6.708;2023-02-17T01:15:15;17.50;;;10.40;;
11665;SDS011;5889;51.350;6.708;2023-02-17T01:17:42;19.37;;;11.20;;
11665;SDS011;5889;51.350;6.708;2023-02-17T01:20:09;18.10;;;10.90;;
11665;SDS011;5889;51.350;6.708;2023-02-17T01:22:36;15.07;;;10.63;;
11665;SDS011;5889;51.350;6.708;2023-02-17T01:25:04;15.47;;;10.47;;
11665;SDS011;5889;51.350;6.708;2023-02-17T01:27:32;18.10;;;11.07;;
11665;SDS011;5889;51.350;6.708;2023-02-17T01:29:59;16.03;;;11.13;;
11665;SDS011;5889;51.350;6.708;2023-02-17T01:32:27;17.83;;;11.57;;
11665;SDS011;5889;51.350;6.708;2023-02-17T01:34:54;14.60;;;11.07;;
11665;SDS011;5889;51.350;6.708;2023-02-17T01:37:21;18.13;;;11.37;;
11665;SDS011;5889;51.350;6.708;2023-02-17T02:49:23;13.47;;;9.53;;
11665;SDS011;5889;51.350;6.708;2023-02-17T02:51:52;13.63;;;10.03;;
11665;SDS011;5889;51.350;6.708;2023-02-17T02:54:34;13.30;;;9.83;;
11665;SDS011;5889;51.350;6.708;2023-02-17T02:57:14;12.10;;;9.03;;
11665;SDS011;5889;51.350;6.708;2023-02-17T02:59:51;14.20;;;9.60;;
11665;SDS011;5889;51.350;6.708;2023-02-17T03:02:28;15.57;;;10.23;;
11665;SDS011;5889;51.350;6.708;2023-02-17T03:04:58;15.77;;;10.00;;
11665;SDS011;5889;51.350;6.708;2023-02-17T03:07:34;14.13;;;10.70;;
11665;SDS011;5889;51.350;6.708;2023-02-17T03:10:04;13.00;;;10.57;;
11665;SDS011;5889;51.350;6.708;2023-02-17T03:12:31;13.70;;;10.40;;
11665;SDS011;5889;51.350;6.708;2023-02-17T03:15:00;15.17;;;10.00;;
11665;SDS011;5889;51.350;6.708;2023-02-17T03:17:31;14.17;;;9.83;;
11665;SDS011;5889;51.350;6.708;2023-02-17T03:19:58;13.20;;;9.40;;
11665;SDS011;5889;51.350;6.708;2023-02-17T03:22:28;11.93;;;9.40;;
11665;SDS011;5889;51.350;6.708;2023-02-17T03:24:59;13.17;;;10.10;;
11665;SDS011;5889;51.350;6.708;2023-02-17T03:27:26;13.20;;;9.37;;
11665;SDS011;5889;51.350;6.708;2023-02-17T03:29:52;13.60;;;8.93;;
11665;SDS011;5889;51.350;6.708;2023-02-17T03:32:19;11.27;;;8.43;;
11665;SDS011;5889;51.350;6.708;2023-02-17T03:34:48;13.90;;;9.90;;
11665;SDS011;5889;51.350;6.708;2023-02-17T03:37:14;12.90;;;9.90;;
11665;SDS011;5889;51.350;6.708;2023-02-17T03:39:42;11.77;;;9.43;;
11665;SDS011;5889;51.350;6.708;2023-02-17T03:42:08;10.70;;;9.37;;
11665;SDS011;5889;51.350;6.708;2023-02-17T03:44:35;12.17;;;8.73;;
11665;SDS011;5889;51.350;6.708;2023-02-17T03:47:02;12.13;;;9.27;;
11665;SDS011;5889;51.350;6.708;2023-02-17T03:49:29;14.07;;;8.90;;
11665;SDS011;5889;51.350;6.708;2023-02-17T03:51:57;15.80;;;10.43;;
11665;SDS011;5889;51.350;6.708;2023-02-17T03:54:24;13.30;;;9.73;;
11665;SDS011;5889;51.350;6.708;2023-02-17T03:56:51;11.17;;;8.90;;
11665;SDS011;5889;51.350;6.708;2023-02-17T03:59:17;13.23;;;8.90;;
11665;SDS011;5889;51.350;6.708;2023-02-17T04:01:44;11.40;;;9.27;;
11665;SDS011;5889;51.350;6.708;2023-02-17T04:04:11;12.33;;;9.13;;
11665;SDS011;5889;51.350;6.708;2023-02-17T04:06:38;14.87;;;8.83;;
11665;SDS011;5889;51.350;6.708;2023-02-17T04:09:06;11.67;;;9.63;;
11665;SDS011;5889;51.350;6.708;2023-02-17T04:11:32;11.83;;;9.40;;
11665;SDS011;5889;51.350;6.708;2023-02-17T04:13:59;12.03;;;8.63;;
11665;SDS011;5889;51.350;6.708;2023-02-17T04:16:26;12.80;;;9.60;;
11665;SDS011;5889;51.350;6.708;2023-02-17T04:18:53;13.97;;;9.47;;
11665;SDS011;5889;51.350;6.708;2023-02-17T04:21:19;12.03;;;9.00;;
11665;SDS011;5889;51.350;6.708;2023-02-17T04:23:46;12.30;;;8.80;;
11665;SDS011;5889;51.350;6.708;2023-02-17T04:26:14;11.73;;;9.47;;
11665;SDS011;5889;51.350;6.708;2023-02-17T04:28:41;10.70;;;9.47;;
11665;SDS011;5889;51.350;6.708;2023-02-17T04:31:08;11.83;;;8.87;;
11665;SDS011;5889;51.350;6.708;2023-02-17T04:33:35;11.70;;;8.83;;
11665;SDS011;5889;51.350;6.708;2023-02-17T04:36:03;12.27;;;8.70;;
11665;SDS011;5889;51.350;6.708;2023-02-17T04:38:30;11.20;;;8.87;;
11665;SDS011;5889;51.350;6.708;2023-02-17T04:40:58;11.40;;;8.77;;
11665;SDS011;5889;51.350;6.708;2023-02-17T04:43:26;11.53;;;8.87;;
11665;SDS011;5889;51.350;6.708;2023-02-17T04:45:54;11.30;;;8.53;;
11665;SDS011;5889;51.350;6.708;2023-02-17T04:48:21;12.77;;;8.83;;
11665;SDS011;5889;51.350;6.708;2023-02-17T04:50:48;11.87;;;8.93;;
11665;SDS011;5889;51.350;6.708;2023-02-17T04:53:15;10.60;;;7.70;;
11665;SDS011;5889;51.350;6.708;2023-02-17T04:55:41;11.20;;;8.43;;
11665;SDS011;5889;51.350;6.708;2023-02-17T04:58:08;11.40;;;8.50;;
11665;SDS011;5889;51.350;6.708;2023-02-17T05:00:36;11.47;;;8.70;;
11665;SDS011;5889;51.350;6.708;2023-02-17T05:03:03;11.37;;;9.00;;
11665;SDS011;5889;51.350;6.708;2023-02-17T05:05:30;13.80;;;9.03;;
11665;SDS011;5889;51.350;6.708;2023-02-17T05:07:57;14.97;;;8.93;;
11665;SDS011;5889;51.350;6.708;2023-02-17T05:10:24;13.60;;;9.33;;
11665;SDS011;5889;51.350;6.708;2023-02-17T05:12:50;13.03;;;9.80;;
11665;SDS011;5889;51.350;6.708;2023-02-17T05:15:17;15.50;;;10.57;;
11665;SDS011;5889;51.350;6.708;2023-02-17T05:17:45;13.17;;;9.40;;
11665;SDS011;5889;51.350;6.708;2023-02-17T05:20:12;13.57;;;9.67;;
11665;SDS011;5889;51.350;6.708;2023-02-17T05:22:39;13.83;;;9.77;;
11665;SDS011;5889;51.350;6.708;2023-02-17T05:25:06;10.80;;;8.97;;
11665;SDS011;5889;51.350;6.708;2023-02-17T05:27:33;12.73;;;9.30;;
11665;SDS011;5889;51.350;6.708;2023-02-17T05:30:00;13.13;;;9.70;;
11665;SDS011;5889;51.350;6.708;2023-02-17T05:32:26;12.03;;;9.83;;
11665;SDS011;5889;51.350;6.708;2023-02-17T05:34:54;11.83;;;8.97;;
11665;SDS011;5889;51.350;6.708;2023-02-17T05:37:21;12.23;;;9.07;;
11665;SDS011;5889;51.350;6.708;2023-02-17T05:39:48;10.43;;;9.00;;
11665;SDS011;5889;51.350;6.708;2023-02-17T05:42:15;10.93;;;8.30;;
11665;SDS011;5889;51.350;6.708;2023-02-17T05:44:41;10.97;;;7.77;;
11665;SDS011;5889;51.350;6.708;2023-02-17T05:47:08;10.87;;;8.60;;
11665;SDS011;5889;51.350;6.708;2023-02-17T05:49:35;10.60;;;8.23;;
11665;SDS011;5889;51.350;6.708;2023-02-17T05:52:03;11.37;;;7.97;;
11665;SDS011;5889;51.350;6.708;2023-02-17T05:54:30;11.63;;;8.83;;
11665;SDS011;5889;51.350;6.708;2023-02-17T05:56:56;10.73;;;8.60;;
11665;SDS011;5889;51.350;6.708;2023-02-17T05:59:23;13.40;;;9.63;;
11665;SDS011;5889;51.350;6.708;2023-02-17T06:01:50;11.80;;;8.97;;
11665;SDS011;5889;51.350;6.708;2023-02-17T06:04:17;13.37;;;10.07;;
11665;SDS011;5889;51.350;6.708;2023-02-17T06:06:44;13.90;;;9.67;;
11665;SDS011;5889;51.350;6.708;2023-02-17T06:09:12;14.27;;;9.70;;
11665;SDS011;5889;51.350;6.708;2023-02-17T06:11:39;12.67;;;8.70;;
11665;SDS011;5889;51.350;6.708;2023-02-17T06:14:06;12.73;;;8.90;;
11665;SDS011;5889;51.350;6.708;2023-02-17T06:16:33;12.77;;;9.50;;
11665;SDS011;5889;51.350;6.708;2023-02-17T06:18:59;12.30;;;9.23;;
11665;SDS011;5889;51.350;6.708;2023-02-17T06:21:29;11.90;;;8.67;;
11665;SDS011;5889;51.350;6.708;2023-02-17T06:23:55;11.07;;;9.27;;
11665;SDS011;5889;51.350;6.708;2023-02-17T06:26:24;14.03;;;8.83;;
11665;SDS011;5889;51.350;6.708;2023-02-17T06:28:50;11.50;;;8.07;;
11665;SDS011;5889;51.350;6.708;2023-02-17T06:31:17;10.57;;;7.93;;
11665;SDS011;5889;51.350;6.708;2023-02-17T06:33:44;12.57;;;8.80;;
11665;SDS011;5889;51.350;6.708;2023-02-17T06:36:10;11.80;;;8.57;;
11665;SDS011;5889;51.350;6.708;2023-02-17T06:38:37;10.57;;;8.30;;
11665;SDS011;5889;51.350;6.708;2023-02-17T06:41:04;11.13;;;7.93;;
11665;SDS011;5889;51.350;6.708;2023-02-17T06:43:32;10.67;;;7.50;;
11665;SDS011;5889;51.350;6.708;2023-02-17T06:45:59;12.00;;;8.30;;
11665;SDS011;5889;51.350;6.708;2023-02-17T06:48:25;11.13;;;8.40;;
11665;SDS011;5889;51.350;6.708;2023-02-17T06:50:52;11.03;;;8.80;;
11665;SDS011;5889;51.350;6.708;2023-02-17T06:53:19;11.60;;;8.67;;
11665;SDS011;5889;51.350;6.708;2023-02-17T06:55:45;12.03;;;8.60;;
11665;SDS011;5889;51.350;6.708;2023-02-17T06:58:12;11.30;;;8.70;;
11665;SDS011;5889;51.350;6.708;2023-02-17T07:00:40;12.17;;;9.13;;
11665;SDS011;5889;51.350;6.708;2023-02-17T07:03:07;12.77;;;9.47;;
11665;SDS011;5889;51.350;6.708;2023-02-17T07:05:34;13.70;;;9.07;;
11665;SDS011;5889;51.350;6.708;2023-02-17T07:08:01;10.03;;;8.07;;
11665;SDS011;5889;51.350;6.708;2023-02-17T07:10:28;10.67;;;8.17;;
11665;SDS011;5889;51.350;6.708;2023-02-17T07:12:54;10.07;;;8.53;;
11665;SDS011;5889;51.350;6.708;2023-02-17T07:15:21;12.43;;;9.60;;
11665;SDS011;5889;51.350;6.708;2023-02-17T07:17:49;11.50;;;9.13;;
11665;SDS011;5889;51.350;6.708;2023-02-17T07:20:16;10.33;;;9.07;;
11665;SDS011;5889;51.350;6.708;2023-02-17T07:22:43;11.97;;;9.30;;
11665;SDS011;5889;51.350;6.708;2023-02-17T07:25:10;12.17;;;9.40;;
11665;SDS011;5889;51.350;6.708;2023-02-17T07:27:36;12.57;;;9.73;;
11665;SDS011;5889;51.350;6.708;2023-02-17T07:30:04;12.10;;;9.60;;
11665;SDS011;5889;51.350;6.708;2023-02-17T07:32:32;12.70;;;9.33;;
11665;SDS011;5889;51.350;6.708;2023-02-17T07:35:00;11.50;;;8.70;;
11665;SDS011;5889;51.350;6.708;2023-02-17T07:37:27;12.90;;;9.60;;
11665;SDS011;5889;51.350;6.708;2023-02-17T07:39:54;12.87;;;9.37;;
11665;SDS011;5889;51.350;6.708;2023-02-17T07:42:22;13.07;;;9.37;;
11665;SDS011;5889;51.350;6.708;2023-02-17T07:44:49;12.83;;;9.23;;
11665;SDS011;5889;51.350;6.708;2023-02-17T07:47:16;11.73;;;8.90;;
11665;SDS011;5889;51.350;6.708;2023-02-17T07:49:42;11.27;;;9.20;;
11665;SDS011;5889;51.350;6.708;2023-02-17T07:52:11;12.87;;;8.80;;
11665;SDS011;5889;51.350;6.708;2023-02-17T07:54:37;12.03;;;8.97;;
11665;SDS011;5889;51.350;6.708;2023-02-17T07:57:04;12.90;;;8.60;;
11665;SDS011;5889;51.350;6.708;2023-02-17T07:59:31;10.70;;;8.40;;
11665;SDS011;5889;51.350;6.708;2023-02-17T08:01:57;12.27;;;8.37;;
11665;SDS011;5889;51.350;6.708;2023-02-17T08:04:24;11.43;;;8.73;;
11665;SDS011;5889;51.350;6.708;2023-02-17T08:06:52;13.60;;;9.13;;
11665;SDS011;5889;51.350;6.708;2023-02-17T08:12:25;9.80;;;8.03;;
11665;SDS011;5889;51.350;6.708;2023-02-17T08:15:12;10.53;;;7.83;;
11665;SDS011;5889;51.350;6.708;2023-02-17T08:17:39;11.77;;;7.83;;
11665;SDS011;5889;51.350;6.708;2023-02-17T08:20:06;10.90;;;7.83;;
11665;SDS011;5889;51.350;6.708;2023-02-17T08:22:34;10.87;;;7.50;;
11665;SDS011;5889;51.350;6.708;2023-02-17T08:25:02;10.83;;;7.67;;
11665;SDS011;5889;51.350;6.708;2023-02-17T08:27:30;10.23;;;7.40;;
11665;SDS011;5889;51.350;6.708;2023-02-17T08:29:56;11.50;;;8.37;;
11665;SDS011;5889;51.350;6.708;2023-02-17T08:32:23;9.57;;;7.53;;
11665;SDS011;5889;51.350;6.708;2023-02-17T08:34:50;10.23;;;7.70;;
11665;SDS011;5889;51.350;6.708;2023-02-17T08:37:20;10.13;;;7.07;;
11665;SDS011;5889;51.350;6.708;2023-02-17T08:39:47;12.07;;;7.90;;
11665;SDS011;5889;51.350;6.708;2023-02-17T08:42:15;8.70;;;6.60;;
11665;SDS011;5889;51.350;6.708;2023-02-17T08:44:43;11.90;;;7.40;;
11665;SDS011;5889;51.350;6.708;2023-02-17T08:47:10;8.90;;;6.67;;
11665;SDS011;5889;51.350;6.708;2023-02-17T08:49:37;11.87;;;7.43;;
11665;SDS011;5889;51.350;6.708;2023-02-17T08:52:05;10.20;;;6.90;;
11665;SDS011;5889;51.350;6.708;2023-02-17T08:54:34;10.80;;;6.80;;
11665;SDS011;5889;51.350;6.708;2023-02-17T08:57:02;11.37;;;7.47;;
11665;SDS011;5889;51.350;6.708;2023-02-17T08:59:30;8.93;;;6.70;;
11665;SDS011;5889;51.350;6.708;2023-02-17T09:01:57;10.10;;;7.10;;
11665;SDS011;5889;51.350;6.708;2023-02-17T09:04:24;11.27;;;7.37;;
11665;SDS011;5889;51.350;6.708;2023-02-17T09:06:51;9.40;;;6.80;;
11665;SDS011;5889;51.350;6.708;2023-02-17T09:09:20;8.97;;;6.60;;
11665;SDS011;5889;51.350;6.708;2023-02-17T09:11:50;8.80;;;6.93;;
11665;SDS011;5889;51.350;6.708;2023-02-17T09:14:19;10.77;;;7.20;;
11665;SDS011;5889;51.350;6.708;2023-02-17T09:16:49;10.03;;;7.40;;
11665;SDS011;5889;51.350;6.708;2023-02-17T09:19:16;7.90;;;6.13;;
11665;SDS011;5889;51.350;6.708;2023-02-17T09:21:43;10.73;;;7.50;;
11665;SDS011;5889;51.350;6.708;2023-02-17T09:24:10;10.73;;;7.13;;
11665;SDS011;5889;51.350;6.708;2023-02-17T09:26:36;10.03;;;7.60;;
11665;SDS011;5889;51.350;6.708;2023-02-17T09:29:03;9.80;;;6.97;;
11665;SDS011;5889;51.350;6.708;2023-02-17T09:31:31;10.23;;;7.03;;
11665;SDS011;5889;51.350;6.708;2023-02-17T09:34:00;8.20;;;6.87;;
11665;SDS011;5889;51.350;6.708;2023-02-17T09:36:30;8.97;;;6.87;;
11665;SDS011;5889;51.350;6.708;2023-02-17T09:38:58;10.00;;;6.77;;
11665;SDS011;5889;51.350;6.708;2023-02-17T09:41:26;11.07;;;7.67;;
11665;SDS011;5889;51.350;6.708;2023-02-17T09:44:03;10.23;;;8.37;;
11665;SDS011;5889;51.350;6.708;2023-02-17T09:46:32;11.10;;;7.83;;
11665;SDS011;5889;51.350;6.708;2023-02-17T09:49:09;11.50;;;6.53;;
11665;SDS011;5889;51.350;6.708;2023-02-17T09:51:41;10.90;;;8.03;;
11665;SDS011;5889;51.350;6.708;2023-02-17T09:54:13;12.53;;;8.13;;
11665;SDS011;5889;51.350;6.708;2023-02-17T09:56:43;10.60;;;8.20;;
11665;SDS011;5889;51.350;6.708;2023-02-17T09:59:13;11.43;;;8.03;;
11665;SDS011;5889;51.350;6.708;2023-02-17T10:01:43;11.53;;;7.30;;
11665;SDS011;5889;51.350;6.708;2023-02-17T10:04:14;14.13;;;9.20;;
11665;SDS011;5889;51.350;6.708;2023-02-17T10:06:58;14.33;;;8.07;;
11665;SDS011;5889;51.350;6.708;2023-02-17T10:09:50;10.47;;;6.50;;
11665;SDS011;5889;51.350;6.708;2023-02-17T10:12:19;10.13;;;7.07;;
11665;SDS011;5889;51.350;6.708;2023-02-17T10:14:52;9.50;;;7.00;;
11665;SDS011;5889;51.350;6.708;2023-02-17T10:17:24;10.00;;;6.60;;
11665;SDS011;5889;51.350;6.708;2023-02-17T10:19:59;7.90;;;6.37;;
11665;SDS011;5889;51.350;6.708;2023-02-17T10:22:29;12.33;;;7.43;;
11665;SDS011;5889;51.350;6.708;2023-02-17T10:24:57;11.87;;;6.17;;
11665;SDS011;5889;51.350;6.708;2023-02-17T10:27:27;8.90;;;6.10;;
11665;SDS011;5889;51.350;6.708;2023-02-17T10:30:05;9.30;;;6.33;;
11665;SDS011;5889;51.350;6.708;2023-02-17T10:32:43;10.30;;;6.10;;
11665;SDS011;5889;51.350;6.708;2023-02-17T10:35:22;7.37;;;5.50;;
11665;SDS011;5889;51.350;6.708;2023-02-17T10:38:00;9.93;;;5.60;;
11665;SDS011;5889;51.350;6.708;2023-02-17T10:40:31;11.63;;;5.47;;
11665;SDS011;5889;51.350;6.708;2023-02-17T10:42:59;7.00;;;4.87;;
11665;SDS011;5889;51.350;6.708;2023-02-17T10:45:29;7.03;;;5.20;;
11665;SDS011;5889;51.350;6.708;2023-02-17T10:48:00;8.07;;;5.23;;
11665;SDS011;5889;51.350;6.708;2023-02-17T10:50:31;6.93;;;5.30;;
11665;SDS011;5889;51.350;6.708;2023-02-17T10:52:58;7.10;;;5.00;;
11665;SDS011;5889;51.350;6.708;2023-02-17T10:55:28;9.73;;;5.07;;
11665;SDS011;5889;51.350;6.708;2023-02-17T10:58:02;7.73;;;5.07;;
11665;SDS011;5889;51.350;6.708;2023-02-17T11:00:34;7.60;;;4.97;;
11665;SDS011;5889;51.350;6.708;2023-02-17T11:03:01;6.93;;;5.10;;
11665;SDS011;5889;51.350;6.708;2023-02-17T11:05:29;7.50;;;4.50;;
11665;SDS011;5889;51.350;6.708;2023-02-17T11:08:19;9.73;;;4.70;;
11665;SDS011;5889;51.350;6.708;2023-02-17T11:11:13;8.00;;;4.77;;
11665;SDS011;5889;51.350;6.708;2023-02-17T11:13:42;8.67;;;4.47;;
11665;SDS011;5889;51.350;6.708;2023-02-17T11:16:24;10.23;;;4.90;;
11665;SDS011;5889;51.350;6.708;2023-02-17T11:18:52;6.30;;;4.30;;
11665;SDS011;5889;51.350;6.708;2023-02-17T11:21:22;7.97;;;4.63;;
11665;SDS011;5889;51.350;6.708;2023-02-17T11:23:50;6.43;;;4.50;;
11665;SDS011;5889;51.350;6.708;2023-02-17T11:26:21;8.00;;;4.83;;
11665;SDS011;5889;51.350;6.708;2023-02-17T11:28:49;8.30;;;4.87;;
11665;SDS011;5889;51.350;6.708;2023-02-17T11:31:31;8.10;;;4.40;;
11665;SDS011;5889;51.350;6.708;2023-02-17T11:34:09;9.20;;;4.97;;
11665;SDS011;5889;51.350;6.708;2023-02-17T11:39:38;10.37;;;4.57;;
11665;SDS011;5889;51.350;6.708;2023-02-17T11:42:31;9.07;;;4.07;;
11665;SDS011;5889;51.350;6.708;2023-02-17T11:44:58;7.30;;;3.63;;
11665;SDS011;5889;51.350;6.708;2023-02-17T11:47:37;6.87;;;4.13;;
11665;SDS011;5889;51.350;6.708;2023-02-17T11:50:19;7.83;;;4.10;;
11665;SDS011;5889;51.350;6.708;2023-02-17T11:52:57;7.10;;;4.10;;
11665;SDS011;5889;51.350;6.708;2023-02-17T11:55:39;6.33;;;3.70;;
11665;SDS011;5889;51.350;6.708;2023-02-17T11:58:18;8.37;;;3.70;;
11665;SDS011;5889;51.350;6.708;2023-02-17T12:00:54;6.20;;;4.23;;
11665;SDS011;5889;51.350;6.708;2023-02-17T12:03:38;7.23;;;4.03;;
11665;SDS011;5889;51.350;6.708;2023-02-17T12:06:17;8.27;;;3.53;;
11665;SDS011;5889;51.350;6.708;2023-02-17T12:08:56;6.50;;;3.70;;
11665;SDS011;5889;51.350;6.708;2023-02-17T12:11:33;8.07;;;3.90;;
11665;SDS011;5889;51.350;6.708;2023-02-17T12:14:13;6.73;;;3.50;;
11665;SDS011;5889;51.350;6.708;2023-02-17T12:17:11;6.13;;;3.30;;
11665;SDS011;5889;51.350;6.708;2023-02-17T12:19:44;5.10;;;3.07;;
11665;SDS011;5889;51.350;6.708;2023-02-17T12:22:17;5.80;;;3.33;;
11665;SDS011;5889;51.350;6.708;2023-02-17T12:27:47;5.93;;;2.90;;
11665;SDS011;5889;51.350;6.708;2023-02-17T12:30:23;4.77;;;2.87;;
11665;SDS011;5889;51.350;6.708;2023-02-17T12:33:02;5.70;;;3.33;;
11665;SDS011;5889;51.350;6.708;2023-02-17T12:35:52;4.43;;;3.10;;
11665;SDS011;5889;51.350;6.708;2023-02-17T12:38:23;4.83;;;3.47;;
11665;SDS011;5889;51.350;6.708;2023-02-17T12:40:52;5.00;;;3.30;;
11665;SDS011;5889;51.350;6.708;2023-02-17T12:43:25;6.70;;;3.50;;
11665;SDS011;5889;51.350;6.708;2023-02-17T12:45:57;5.00;;;3.03;;
11665;SDS011;5889;51.350;6.708;2023-02-17T12:48:27;7.20;;;4.07;;
11665;SDS011;5889;51.350;6.708;2023-02-17T12:50:59;7.00;;;3.50;;
11665;SDS011;5889;51.350;6.708;2023-02-17T12:53:41;5.40;;;3.93;;
11665;SDS011;5889;51.350;6.708;2023-02-17T12:56:32;8.17;;;3.90;;
11665;SDS011;5889;51.350;6.708;2023-02-17T12:59:16;6.17;;;3.90;;
11665;SDS011;5889;51.350;6.708;2023-02-17T13:01:47;6.83;;;3.40;;
11665;SDS011;5889;51.350;6.708;2023-02-17T13:04:18;7.63;;;3.90;;
11665;SDS011;5889;51.350;6.708;2023-02-17T13:06:50;4.90;;;3.67;;
11665;SDS011;5889;51.350;6.708;2023-02-17T13:09:23;4.77;;;3.47;;
11665;SDS011;5889;51.350;6.708;2023-02-17T13:12:05;3.53;;;2.73;;
11665;SDS011;5889;51.350;6.708;2023-02-17T13:14:38;5.97;;;3.23;;
11665;SDS011;5889;51.350;6.708;2023-02-17T13:17:20;5.50;;;3.63;;
11665;SDS011;5889;51.350;6.708;2023-02-17T13:19:58;5.03;;;2.93;;
11665;SDS011;5889;51.350;6.708;2023-02-17T13:22:41;8.60;;;3.67;;
11665;SDS011;5889;51.350;6.708;2023-02-17T13:25:09;3.73;;;3.33;;
11665;SDS011;5889;51.350;6.708;2023-02-17T13:27:38;4.97;;;3.03;;
11665;SDS011;5889;51.350;6.708;2023-02-17T13:30:25;5.73;;;2.80;;
11665;SDS011;5889;51.350;6.708;2023-02-17T13:32:59;4.27;;;2.53;;
11665;SDS011;5889;51.350;6.708;2023-02-17T13:35:29;4.07;;;2.80;;
11665;SDS011;5889;51.350;6.708;2023-02-17T13:37:58;5.07;;;3.13;;
11665;SDS011;5889;51.350;6.708;2023-02-17T13:40:33;5.80;;;3.23;;
11665;SDS011;5889;51.350;6.708;2023-02-17T13:43:09;3.80;;;2.70;;
11665;SDS011;5889;51.350;6.708;2023-02-17T13:45:42;5.50;;;2.27;;
11665;SDS011;5889;51.350;6.708;2023-02-17T13:48:11;2.97;;;2.00;;
11665;SDS011;5889;51.350;6.708;2023-02-17T13:50:44;3.13;;;2.47;;
11665;SDS011;5889;51.350;6.708;2023-02-17T13:53:22;3.13;;;2.23;;
11665;SDS011;5889;51.350;6.708;2023-02-17T13:55:54;5.47;;;2.60;;
11665;SDS011;5889;51.350;6.708;2023-02-17T13:58:23;4.70;;;2.10;;
11665;SDS011;5889;51.350;6.708;2023-02-17T14:00:54;4.60;;;2.33;;
11665;SDS011;5889;51.350;6.708;2023-02-17T14:03:23;4.17;;;2.30;;
11665;SDS011;5889;51.350;6.708;2023-02-17T14:05:51;5.67;;;2.20;;
11665;SDS011;5889;51.350;6.708;2023-02-17T14:08:22;3.47;;;2.00;;
11665;SDS011;5889;51.350;6.708;2023-02-17T14:10:54;3.83;;;2.00;;
11665;SDS011;5889;51.350;6.708;2023-02-17T14:13:22;4.63;;;2.40;;
11665;SDS011;5889;51.350;6.708;2023-02-17T14:15:51;4.97;;;1.90;;
11665;SDS011;5889;51.350;6.708;2023-02-17T14:18:27;1.63;;;1.50;;
11665;SDS011;5889;51.350;6.708;2023-02-17T14:21:00;4.30;;;1.70;;
11665;SDS011;5889;51.350;6.708;2023-02-17T14:23:38;2.30;;;1.40;;
11665;SDS011;5889;51.350;6.708;2023-02-17T14:26:14;2.33;;;1.63;;
11665;SDS011;5889;51.350;6.708;2023-02-17T14:28:54;3.80;;;1.50;;
11665;SDS011;5889;51.350;6.708;2023-02-17T14:31:25;4.03;;;1.67;;
11665;SDS011;5889;51.350;6.708;2023-02-17T14:33:54;3.43;;;1.43;;
11665;SDS011;5889;51.350;6.708;2023-02-17T14:36:27;3.87;;;1.60;;
11665;SDS011;5889;51.350;6.708;2023-02-17T14:38:56;1.90;;;1.27;;
11665;SDS011;5889;51.350;6.708;2023-02-17T14:41:24;3.20;;;1.50;;
11665;SDS011;5889;51.350;6.708;2023-02-17T14:43:51;4.53;;;1.63;;
11665;SDS011;5889;51.350;6.708;2023-02-17T14:46:18;2.60;;;1.77;;
11665;SDS011;5889;51.350;6.708;2023-02-17T14:48:47;2.50;;;1.93;;
11665;SDS011;5889;51.350;6.708;2023-02-17T14:51:15;2.87;;;1.37;;
11665;SDS011;5889;51.350;6.708;2023-02-17T14:53:43;3.57;;;2.20;;
11665;SDS011;5889;51.350;6.708;2023-02-17T14:56:13;2.73;;;1.87;;
11665;SDS011;5889;51.350;6.708;2023-02-17T14:58:44;2.87;;;2.20;;
11665;SDS011;5889;51.350;6.708;2023-02-17T15:01:11;2.73;;;2.30;;
11665;SDS011;5889;51.350;6.708;2023-02-17T15:03:39;5.80;;;2.43;;
11665;SDS011;5889;51.350;6.708;2023-02-17T15:06:10;6.43;;;2.40;;
11665;SDS011;5889;51.350;6.708;2023-02-17T15:08:39;3.63;;;2.60;;
11665;SDS011;5889;51.350;6.708;2023-02-17T15:11:06;4.40;;;2.30;;
11665;SDS011;5889;51.350;6.708;2023-02-17T15:13:41;3.20;;;2.63;;
11665;SDS011;5889;51.350;6.708;2023-02-17T15:16:08;4.50;;;3.10;;
11665;SDS011;5889;51.350;6.708;2023-02-17T15:18:34;5.57;;;3.70;;
11665;SDS011;5889;51.350;6.708;2023-02-17T15:21:01;6.23;;;3.67;;
11665;SDS011;5889;51.350;6.708;2023-02-17T15:23:40;5.07;;;4.03;;
11665;SDS011;5889;51.350;6.708;2023-02-17T15:26:07;4.17;;;3.77;;
11665;SDS011;5889;51.350;6.708;2023-02-17T15:28:37;5.73;;;3.97;;
11665;SDS011;5889;51.350;6.708;2023-02-17T15:31:11;7.03;;;3.80;;
11665;SDS011;5889;51.350;6.708;2023-02-17T15:33:39;6.83;;;4.10;;
11665;SDS011;5889;51.350;6.708;2023-02-17T15:36:06;5.43;;;3.60;;
11665;SDS011;5889;51.350;6.708;2023-02-17T15:38:38;4.60;;;4.00;;
11665;SDS011;5889;51.350;6.708;2023-02-17T15:41:10;6.60;;;4.20;;
11665;SDS011;5889;51.350;6.708;2023-02-17T15:43:39;5.20;;;3.93;;
11665;SDS011;5889;51.350;6.708;2023-02-17T15:46:10;5.50;;;4.03;;
11665;SDS011;5889;51.350;6.708;2023-02-17T15:48:38;5.33;;;4.23;;
11665;SDS011;5889;51.350;6.708;2023-02-17T15:51:05;5.57;;;3.50;;
11665;SDS011;5889;51.350;6.708;2023-02-17T15:53:31;6.43;;;4.07;;
11665;SDS011;5889;51.350;6.708;2023-02-17T15:55:58;3.97;;;3.57;;
11665;SDS011;5889;51.350;6.708;2023-02-17T15:58:29;7.70;;;3.80;;
11665;SDS011;5889;51.350;6.708;2023-02-17T16:01:00;8.10;;;4.17;;
11665;SDS011;5889;51.350;6.708;2023-02-17T16:03:36;4.73;;;3.63;;
11665;SDS011;5889;51.350;6.708;2023-02-17T16:06:07;4.13;;;3.63;;
11665;SDS011;5889;51.350;6.708;2023-02-17T16:08:34;5.63;;;4.27;;
11665;SDS011;5889;51.350;6.708;2023-02-17T16:11:01;5.50;;;3.77;;
11665;SDS011;5889;51.350;6.708;2023-02-17T16:13:30;4.03;;;3.53;;
11665;SDS011;5889;51.350;6.708;2023-02-17T16:15:57;5.23;;;3.53;;
11665;SDS011;5889;51.350;6.708;2023-02-17T16:18:24;5.30;;;3.53;;
11665;SDS011;5889;51.350;6.708;2023-02-17T16:20:51;9.10;;;4.20;;
11665;SDS011;5889;51.350;6.708;2023-02-17T16:23:18;6.20;;;4.30;;
11665;SDS011;5889;51.350;6.708;2023-02-17T16:25:45;6.10;;;4.13;;